createdAt,value
2023-03-22T00:00:01.483Z,67.97
2023-03-22T00:02:33.214Z,67.73
2023-03-22T00:05:02.493Z,68.41
2023-03-22T00:07:31.560Z,66.87
2023-03-22T00:10:01.415Z,68.42
2023-03-22T00:12:31.789Z,68.71
2023-03-22T00:15:09.610Z,70.07
2023-03-22T00:17:39.556Z,68.61
2023-03-22T00:20:16.165Z,67.52
2023-03-22T00:22:46.736Z,65.86
2023-03-22T00:25:15.968Z,66.65
2023-03-22T00:27:44.833Z,66.61
2023-03-22T00:30:17.559Z,67.08
2023-03-22T00:32:47.965Z,66.45
2023-03-22T00:35:19.636Z,66.39
2023-03-22T00:37:51.293Z,66.33
2023-03-22T00:40:21.385Z,65.89
2023-03-22T00:42:55.137Z,66.22
2023-03-22T00:45:23.005Z,65.72
2023-03-22T00:47:59.161Z,66.91
2023-03-22T00:50:29.273Z,67.71
2023-03-22T00:52:57.189Z,67.47
2023-03-22T00:55:26.272Z,69.36
2023-03-22T00:57:56.570Z,69.72
2023-03-22T01:00:29.375Z,70.88
2023-03-22T01:02:59.859Z,70.45
2023-03-22T01:05:30.330Z,70.54
2023-03-22T01:08:02.802Z,71.28
2023-03-22T01:10:30.672Z,71.13
2023-03-22T01:12:58.548Z,70.39
2023-03-22T01:15:27.722Z,71.25
2023-03-22T01:17:57.437Z,70.70
2023-03-22T01:20:25.730Z,70.73
2023-03-22T01:22:55.097Z,72.87
2023-03-22T01:25:23.065Z,72.57
2023-03-22T01:27:52.337Z,73.18
2023-03-22T01:30:21.153Z,73.86
2023-03-22T01:32:49.349Z,71.95
2023-03-22T01:35:19.610Z,73.42
2023-03-22T01:37:52.773Z,73.06
2023-03-22T01:40:23.374Z,73.20
2023-03-22T01:42:51.228Z,73.36
2023-03-22T01:45:34.890Z,73.78
2023-03-22T01:48:05.750Z,73.64
2023-03-22T01:50:34.018Z,74.22
2023-03-22T01:53:07.855Z,74.30
2023-03-22T01:55:42.698Z,75.17
2023-03-22T01:58:12.848Z,72.90
2023-03-22T02:00:43.312Z,72.53
2023-03-22T02:03:12.365Z,72.38
2023-03-22T02:05:42.838Z,71.00
2023-03-22T02:08:15.203Z,72.63
2023-03-22T02:10:46.402Z,72.85
2023-03-22T02:13:27.639Z,72.85
2023-03-22T02:16:03.830Z,71.88
2023-03-22T02:18:55.064Z,73.51
2023-03-22T02:21:38.098Z,73.73
2023-03-22T02:24:47.349Z,73.97
2023-03-22T02:27:32.453Z,74.20
2023-03-22T02:30:21.391Z,73.32
2023-03-22T02:33:10.829Z,73.39
2023-03-22T02:35:44.665Z,73.24
2023-03-22T02:38:57.799Z,73.93
2023-03-22T02:41:31.027Z,73.73
2023-03-22T02:44:06.113Z,72.97
2023-03-22T02:46:38.910Z,72.43
2023-03-22T02:49:12.310Z,73.80
2023-03-22T02:51:44.798Z,73.96
2023-03-22T02:54:21.160Z,74.62
2023-03-22T02:56:54.936Z,74.28
2023-03-22T02:59:23.313Z,74.39
2023-03-22T03:01:58.136Z,74.33
2023-03-22T03:04:32.591Z,74.75
2023-03-22T03:07:07.367Z,72.78
2023-03-22T03:09:36.778Z,73.02
2023-03-22T03:12:15.064Z,72.97
2023-03-22T03:14:48.567Z,73.67
2023-03-22T03:17:30.807Z,73.35
2023-03-22T03:20:22.605Z,74.17
2023-03-22T03:22:57.001Z,75.24
2023-03-22T03:25:32.644Z,73.54
2023-03-22T03:28:04.898Z,71.03
2023-03-22T03:30:39.914Z,71.95
2023-03-22T03:33:12.792Z,70.88
2023-03-22T03:35:42.990Z,70.84
2023-03-22T03:38:14.829Z,71.32
2023-03-22T03:40:52.922Z,69.65
2023-03-22T03:43:33.977Z,70.43
2023-03-22T03:46:02.191Z,70.43
2023-03-22T03:48:33.340Z,70.80
2023-03-22T03:51:02.964Z,70.12
2023-03-22T03:53:31.768Z,68.99
2023-03-22T03:56:06.702Z,69.55
2023-03-22T03:58:35.013Z,69.71
2023-03-22T04:01:04.060Z,68.83
2023-03-22T04:03:32.668Z,68.57
2023-03-22T04:06:01.062Z,68.57
2023-03-22T04:08:28.915Z,68.56
2023-03-22T04:10:57.284Z,69.24
2023-03-22T04:13:29.902Z,70.49
2023-03-22T04:16:02.058Z,69.75
2023-03-22T04:18:31.634Z,69.76
2023-03-22T04:20:59.383Z,71.48
2023-03-22T04:23:28.205Z,71.47
2023-03-22T04:25:59.541Z,70.13
2023-03-22T04:28:30.006Z,69.63
2023-03-22T04:30:57.929Z,68.83
2023-03-22T04:33:26.168Z,70.17
2023-03-22T04:35:56.955Z,69.93
2023-03-22T04:38:26.131Z,70.90
2023-03-22T04:40:53.938Z,72.52
2023-03-22T04:43:27.309Z,71.76
2023-03-22T04:46:00.259Z,73.15
2023-03-22T04:48:28.151Z,73.09
2023-03-22T04:51:04.221Z,71.29
2023-03-22T04:53:32.183Z,72.62
2023-03-22T04:56:00.350Z,71.59
2023-03-22T04:58:31.222Z,71.61
2023-03-22T05:01:05.503Z,73.20
2023-03-22T05:03:33.938Z,73.71
2023-03-22T05:06:03.054Z,74.28
2023-03-22T05:08:32.733Z,74.90
2023-03-22T05:11:07.305Z,73.43
2023-03-22T05:13:36.765Z,72.82
2023-03-22T05:16:07.873Z,72.28
2023-03-22T05:18:40.753Z,72.15
2023-03-22T05:21:15.628Z,70.14
2023-03-22T05:23:43.665Z,71.53
2023-03-22T05:26:18.883Z,73.27
2023-03-22T05:28:49.498Z,71.38
2023-03-22T05:31:23.515Z,72.20
2023-03-22T05:33:54.388Z,72.39
2023-03-22T05:36:24.170Z,74.04
2023-03-22T05:38:53.690Z,72.80
2023-03-22T05:41:32.633Z,71.05
2023-03-22T05:44:01.461Z,71.83
2023-03-22T05:46:34.378Z,72.35
2023-03-22T05:49:03.071Z,73.04
2023-03-22T05:51:31.097Z,72.19
2023-03-22T05:53:58.966Z,72.44
2023-03-22T05:56:27.096Z,70.76
2023-03-22T05:58:54.840Z,72.45
2023-03-22T06:01:23.256Z,73.00
2023-03-22T06:03:55.838Z,71.27
2023-03-22T06:06:23.970Z,71.44
2023-03-22T06:08:52.625Z,72.41
2023-03-22T06:11:22.765Z,72.54
2023-03-22T06:13:52.546Z,72.50
2023-03-22T06:16:21.984Z,74.11
2023-03-22T06:19:01.627Z,73.79
2023-03-22T06:21:34.848Z,73.17
2023-03-22T06:24:03.332Z,73.86
2023-03-22T06:26:39.929Z,73.19
2023-03-22T06:29:08.202Z,73.94
2023-03-22T06:31:36.381Z,74.67
2023-03-22T06:34:05.243Z,74.37
2023-03-22T06:36:34.862Z,73.46
2023-03-22T06:39:05.269Z,74.54
2023-03-22T06:41:35.268Z,72.68
2023-03-22T06:44:03.887Z,73.67
2023-03-22T06:46:32.182Z,73.63
2023-03-22T06:49:00.065Z,73.57
2023-03-22T06:51:28.498Z,72.98
2023-03-22T06:53:59.705Z,73.21
2023-03-22T06:56:31.482Z,73.04
2023-03-22T06:59:00.095Z,73.02
2023-03-22T07:01:29.766Z,72.33
2023-03-22T07:03:57.894Z,72.23
2023-03-22T07:06:26.552Z,72.81
2023-03-22T07:08:55.698Z,71.73
2023-03-22T07:11:27.314Z,71.34
2023-03-22T07:13:55.843Z,71.98
2023-03-22T07:16:24.103Z,70.29
2023-03-22T07:18:51.940Z,71.16
2023-03-22T07:21:20.148Z,71.24
2023-03-22T07:23:52.235Z,68.61
2023-03-22T07:26:22.868Z,69.09
2023-03-22T07:28:59.309Z,68.86
2023-03-22T07:31:29.289Z,69.07
2023-03-22T07:33:57.219Z,68.90
2023-03-22T07:36:25.800Z,69.54
2023-03-22T07:38:56.069Z,67.36
2023-03-22T07:41:30.273Z,67.85
2023-03-22T07:44:17.638Z,68.45
2023-03-22T07:46:57.476Z,67.73
2023-03-22T07:49:25.437Z,67.30
2023-03-22T07:51:53.860Z,67.48
2023-03-22T07:54:32.858Z,66.38
2023-03-22T07:57:08.123Z,66.86
2023-03-22T07:59:40.002Z,65.23
2023-03-22T08:02:10.652Z,66.32
2023-03-22T08:04:38.633Z,64.99
2023-03-22T08:07:10.211Z,63.57
2023-03-22T08:09:38.325Z,63.70
2023-03-22T08:12:07.683Z,63.57
2023-03-22T08:14:38.458Z,63.07
2023-03-22T08:17:09.547Z,64.33
2023-03-22T08:19:37.776Z,63.99
2023-03-22T08:22:08.214Z,63.42
2023-03-22T08:24:36.733Z,63.42
2023-03-22T08:27:04.892Z,62.55
2023-03-22T08:29:33.121Z,61.88
2023-03-22T08:32:09.967Z,62.51
2023-03-22T08:34:38.684Z,62.34
2023-03-22T08:37:11.263Z,62.00
2023-03-22T08:39:39.355Z,62.18
2023-03-22T08:42:10.114Z,61.19
2023-03-22T08:44:40.841Z,61.09
2023-03-22T08:47:13.076Z,61.16
2023-03-22T08:49:43.106Z,60.76
2023-03-22T08:52:14.641Z,61.37
2023-03-22T08:54:42.820Z,60.18
2023-03-22T08:57:11.851Z,60.69
2023-03-22T08:59:44.516Z,60.07
2023-03-22T09:02:14.157Z,59.95
2023-03-22T09:04:42.251Z,58.68
2023-03-22T09:07:10.667Z,58.63
2023-03-22T09:09:41.769Z,60.61
2023-03-22T09:12:10.416Z,59.67
2023-03-22T09:14:40.347Z,57.96
2023-03-22T09:17:08.989Z,57.37
2023-03-22T09:19:39.100Z,58.40
2023-03-22T09:22:07.379Z,59.11
2023-03-22T09:24:36.302Z,58.92
2023-03-22T09:27:10.166Z,58.45
2023-03-22T09:29:38.333Z,57.53
2023-03-22T09:32:07.229Z,58.06
2023-03-22T09:34:37.169Z,57.25
2023-03-22T09:37:09.515Z,57.03
2023-03-22T09:39:41.227Z,58.19
2023-03-22T09:42:19.091Z,58.36
2023-03-22T09:44:48.110Z,58.03
2023-03-22T09:47:26.950Z,56.59
2023-03-22T09:50:01.736Z,58.08
2023-03-22T09:52:34.091Z,55.65
2023-03-22T09:55:05.149Z,56.17
2023-03-22T09:57:37.440Z,55.99
2023-03-22T10:00:17.528Z,54.83
2023-03-22T10:02:53.826Z,54.25
2023-03-22T10:05:32.215Z,54.85
2023-03-22T10:08:25.385Z,56.98
2023-03-22T10:10:53.808Z,56.14
2023-03-22T10:13:26.214Z,55.78
2023-03-22T10:15:55.489Z,55.90
2023-03-22T10:18:29.477Z,56.39
2023-03-22T10:21:02.442Z,57.11
2023-03-22T10:23:35.648Z,58.54
2023-03-22T10:26:06.868Z,56.24
2023-03-22T10:28:40.599Z,56.52
2023-03-22T10:31:14.791Z,56.20
2023-03-22T10:33:53.017Z,54.86
2023-03-22T10:36:24.872Z,53.42
2023-03-22T10:39:00.724Z,52.23
2023-03-22T10:41:33.928Z,55.50
2023-03-22T10:44:07.023Z,54.09
2023-03-22T10:46:38.641Z,53.98
2023-03-22T10:49:07.507Z,54.21
2023-03-22T10:51:38.392Z,52.27
2023-03-22T10:54:26.071Z,50.25
2023-03-22T10:56:54.464Z,48.03
2023-03-22T10:59:45.672Z,48.11
2023-03-22T11:02:20.057Z,48.77
2023-03-22T11:04:50.160Z,47.34
2023-03-22T11:07:30.969Z,47.34
2023-03-22T11:10:24.879Z,47.88
2023-03-22T11:12:56.146Z,47.43
2023-03-22T11:15:28.120Z,48.55
2023-03-22T11:18:00.640Z,47.08
2023-03-22T11:20:30.662Z,45.97
2023-03-22T11:23:05.163Z,44.03
2023-03-22T11:25:39.790Z,45.83
2023-03-22T11:28:15.593Z,46.13
2023-03-22T11:31:03.033Z,44.77
2023-03-22T11:33:36.343Z,44.57
2023-03-22T11:36:09.566Z,43.67
2023-03-22T11:38:39.775Z,43.70
2023-03-22T11:41:21.219Z,43.01
2023-03-22T11:43:52.703Z,42.55
2023-03-22T11:46:26.986Z,43.17
2023-03-22T11:49:01.277Z,43.34
2023-03-22T11:51:31.064Z,43.98
2023-03-22T11:54:08.022Z,44.55
2023-03-22T11:56:41.731Z,44.43
2023-03-22T11:59:16.779Z,43.57
2023-03-22T12:01:49.883Z,43.47
2023-03-22T12:04:20.339Z,43.31
2023-03-22T12:06:49.004Z,43.00
2023-03-22T12:09:26.120Z,44.01
2023-03-22T12:12:00.983Z,43.83
2023-03-22T12:14:32.094Z,42.56
2023-03-22T12:17:06.367Z,42.76
2023-03-22T12:19:48.469Z,42.90
2023-03-22T12:22:21.288Z,43.60
2023-03-22T12:24:49.329Z,42.50
2023-03-22T12:27:22.598Z,42.91
2023-03-22T12:29:54.826Z,43.22
2023-03-22T12:32:25.915Z,42.73
2023-03-22T12:35:05.427Z,42.94
2023-03-22T12:37:44.962Z,42.77
2023-03-22T12:40:22.099Z,43.23
2023-03-22T12:43:00.081Z,43.04
2023-03-22T12:45:30.507Z,41.72
2023-03-22T12:48:03.847Z,42.60
2023-03-22T12:50:35.991Z,41.64
2023-03-22T12:53:04.571Z,40.30
2023-03-22T12:55:34.928Z,39.79
2023-03-22T12:58:09.098Z,38.99
2023-03-22T13:00:44.840Z,39.95
2023-03-22T13:03:27.813Z,40.72
2023-03-22T13:06:05.018Z,41.55
2023-03-22T13:09:10.746Z,40.96
2023-03-22T13:11:40.566Z,41.46
2023-03-22T13:14:23.919Z,42.10
2023-03-22T13:16:54.953Z,41.39
2023-03-22T13:19:34.094Z,41.50
2023-03-22T13:22:35.772Z,42.41
2023-03-22T13:25:15.574Z,42.34
2023-03-22T13:27:55.828Z,40.45
2023-03-22T13:30:31.081Z,41.07
2023-03-22T13:33:08.584Z,41.00
2023-03-22T13:35:46.846Z,41.27
2023-03-22T13:38:22.199Z,41.06
2023-03-22T13:40:58.062Z,41.71
2023-03-22T13:43:33.035Z,41.90
2023-03-22T13:46:46.698Z,40.61
2023-03-22T13:49:46.300Z,41.85
2023-03-22T13:52:26.217Z,40.44
2023-03-22T13:54:55.941Z,40.10
2023-03-22T13:57:50.598Z,41.22
2023-03-22T14:00:39.014Z,40.50
2023-03-22T14:03:16.667Z,40.52
2023-03-22T14:05:47.473Z,40.67
2023-03-22T14:08:24.719Z,41.23
2023-03-22T14:10:58.115Z,41.05
2023-03-22T14:13:33.294Z,41.25
2023-03-22T14:16:09.172Z,41.80
2023-03-22T14:18:44.460Z,41.96
2023-03-22T14:21:15.068Z,42.62
